Time;durP1;ratioP1;P1;durP2;ratioP2;P2;SDS_P1;SDS_P2;PMS_P1;PMS_P2;Temp;Humidity;BMP_temperature;BMP_pressure;BME280_temperature;BME280_humidity;BME280_pressure;Samples;Min_cycle;Max_cycle;Signal;HPM_P1;HPM_P2
2024/01/25 00:02:08;;;;;;;2.07;1.97;;;17.00;68.00;;;;;;5066770;28;44512;-80
2024/01/25 00:04:36;;;;;;;2.10;2.00;;;17.00;68.20;;;;;;5067248;28;43914;-81
2024/01/25 00:07:07;;;;;;;2.87;2.10;;;17.00;68.00;;;;;;5068035;28;43400;-81
2024/01/25 00:09:36;;;;;;;2.17;2.07;;;17.00;67.80;;;;;;5062165;28;43431;-81
2024/01/25 00:12:05;;;;;;;2.13;2.03;;;17.10;67.80;;;;;;5059811;28;46269;-80
2024/01/25 00:14:33;;;;;;;1.93;1.83;;;17.10;67.80;;;;;;5065509;28;44606;-82
2024/01/25 00:17:02;;;;;;;2.10;2.00;;;17.10;67.90;;;;;;5066659;28;43509;-80
2024/01/25 00:19:31;;;;;;;2.10;2.00;;;17.00;67.90;;;;;;5062117;28;43554;-78
2024/01/25 00:22:00;;;;;;;1.93;1.83;;;17.00;67.90;;;;;;5067653;28;44035;-81
2024/01/25 00:24:28;;;;;;;1.87;1.87;;;17.00;67.80;;;;;;5074918;28;45028;-79
2024/01/25 00:26:56;;;;;;;2.53;2.33;;;17.00;67.90;;;;;;5068794;28;43459;-81
2024/01/25 00:29:24;;;;;;;1.90;1.80;;;17.00;68.00;;;;;;5067011;28;43933;-80
2024/01/25 00:31:52;;;;;;;3.23;2.37;;;17.00;68.10;;;;;;5066521;28;43868;-80
2024/01/25 00:34:22;;;;;;;2.10;2.00;;;17.00;68.10;;;;;;5066506;28;44434;-80
2024/01/25 00:36:51;;;;;;;1.90;1.80;;;17.00;68.30;;;;;;5068261;28;43346;-79
2024/01/25 00:39:20;;;;;;;2.20;2.10;;;17.00;68.00;;;;;;5083798;28;43676;-80
2024/01/25 00:41:48;;;;;;;1.90;1.80;;;17.10;67.90;;;;;;5065859;28;45303;-83
2024/01/25 00:44:17;;;;;;;2.10;2.00;;;17.10;67.80;;;;;;5067580;28;43403;-79
2024/01/25 00:46:46;;;;;;;1.90;1.80;;;17.10;67.90;;;;;;5068039;28;43436;-82
2024/01/25 00:49:15;;;;;;;2.00;1.90;;;17.10;67.90;;;;;;5071735;28;43488;-80
2024/01/25 00:51:47;;;;;;;2.10;2.00;;;17.00;68.00;;;;;;5066163;28;45749;-81
2024/01/25 00:54:16;;;;;;;2.30;2.10;;;17.00;68.70;;;;;;5067564;28;43898;-80
2024/01/25 00:56:45;;;;;;;1.67;1.67;;;17.00;67.90;;;;;;5076592;28;43471;-81
2024/01/25 00:59:13;;;;;;;2.00;1.90;;;17.00;67.90;;;;;;5067556;28;43857;-78
2024/01/25 01:01:41;;;;;;;2.10;2.00;;;17.00;68.00;;;;;;5067223;28;43968;-81
2024/01/25 01:04:10;;;;;;;1.90;1.80;;;17.00;68.10;;;;;;5065343;28;43393;-82
2024/01/25 01:06:39;;;;;;;2.20;2.10;;;17.00;68.10;;;;;;5061599;28;43494;-83
2024/01/25 01:09:09;;;;;;;1.97;1.90;;;17.00;69.00;;;;;;5066636;28;43542;-81
2024/01/25 01:11:37;;;;;;;2.10;2.00;;;17.00;68.10;;;;;;5063621;28;45411;-82
2024/01/25 01:14:05;;;;;;;2.13;2.03;;;17.10;68.60;;;;;;5066919;28;43449;-81
2024/01/25 01:16:35;;;;;;;1.70;1.70;;;17.10;67.70;;;;;;5067442;28;43431;-81
2024/01/25 01:19:06;;;;;;;1.70;1.70;;;17.10;67.60;;;;;;5066657;28;43822;-82
2024/01/25 01:21:35;;;;;;;1.80;1.70;;;17.10;67.80;;;;;;5075370;28;45376;-81
2024/01/25 01:24:04;;;;;;;1.80;1.80;;;17.10;67.90;;;;;;5072053;28;44556;-81
2024/01/25 01:26:35;;;;;;;1.80;1.80;;;17.00;67.90;;;;;;5067112;28;43402;-81
2024/01/25 01:29:03;;;;;;;1.63;1.63;;;17.10;67.90;;;;;;5066248;28;43647;-81
2024/01/25 01:31:31;;;;;;;1.97;1.87;;;17.00;67.90;;;;;;5067408;28;43606;-81
2024/01/25 01:34:00;;;;;;;1.50;1.50;;;17.00;67.90;;;;;;5075042;28;44741;-81
2024/01/25 01:36:28;;;;;;;1.90;1.80;;;17.00;68.00;;;;;;5069671;28;43364;-82
2024/01/25 01:38:56;;;;;;;1.90;1.80;;;17.00;68.10;;;;;;5069158;28;43548;-81
2024/01/25 01:41:24;;;;;;;2.20;2.10;;;17.00;68.30;;;;;;5072979;28;45274;-82
2024/01/25 01:43:55;;;;;;;1.80;1.70;;;17.00;68.10;;;;;;5068584;28;43464;-82
2024/01/25 01:46:30;;;;;;;1.83;1.83;;;17.00;68.20;;;;;;5074721;28;43932;-81
2024/01/25 01:48:58;;;;;;;1.80;1.70;;;17.00;68.20;;;;;;5070820;28;43383;-81
2024/01/25 01:51:27;;;;;;;2.27;2.17;;;17.00;68.20;;;;;;5068565;28;45725;-81
2024/01/25 01:53:55;;;;;;;1.90;1.80;;;16.90;68.20;;;;;;5068892;28;45300;-81
2024/01/25 01:56:23;;;;;;;1.87;1.80;;;16.90;68.40;;;;;;5077112;28;43432;-81
2024/01/25 01:58:52;;;;;;;2.00;1.90;;;16.90;68.30;;;;;;5069062;28;43482;-82
2024/01/25 02:01:21;;;;;;;1.90;1.80;;;17.00;68.10;;;;;;5068774;28;45680;-82
2024/01/25 02:03:49;;;;;;;1.93;1.83;;;17.10;67.90;;;;;;5069961;28;43514;-81
2024/01/25 02:06:18;;;;;;;2.07;1.80;;;17.10;67.60;;;;;;5068178;28;43506;-82
2024/01/25 02:08:46;;;;;;;1.63;1.53;;;17.10;67.60;;;;;;5068737;28;43445;-82
2024/01/25 02:11:14;;;;;;;1.90;1.80;;;17.10;67.80;;;;;;5069334;28;43993;-82
2024/01/25 02:13:43;;;;;;;1.97;1.87;;;17.10;67.90;;;;;;5067919;28;43482;-81
2024/01/25 02:16:11;;;;;;;1.77;1.67;;;17.10;67.90;;;;;;5069782;28;44031;-81
2024/01/25 02:18:40;;;;;;;1.57;1.57;;;17.10;67.90;;;;;;5074317;28;43660;-81
2024/01/25 02:21:09;;;;;;;1.60;1.60;;;17.00;67.90;;;;;;5062732;28;45845;-81
2024/01/25 02:23:39;;;;;;;1.90;1.80;;;17.00;68.00;;;;;;5062106;28;44381;-82
2024/01/25 02:26:07;;;;;;;2.27;2.07;;;17.00;68.80;;;;;;5067113;28;43372;-81
2024/01/25 02:28:36;;;;;;;2.20;2.10;;;17.00;68.20;;;;;;5070405;28;43412;-81
2024/01/25 02:31:04;;;;;;;1.77;1.67;;;17.00;68.30;;;;;;5068863;28;43882;-82
2024/01/25 02:33:32;;;;;;;1.50;1.50;;;17.00;68.20;;;;;;5068021;28;44822;-81
2024/01/25 02:36:01;;;;;;;2.00;1.90;;;17.00;68.20;;;;;;5075319;28;43394;-81
2024/01/25 02:38:29;;;;;;;1.57;1.57;;;17.00;68.20;;;;;;5074166;28;43618;-81
2024/01/25 02:40:58;;;;;;;1.60;1.60;;;16.90;68.20;;;;;;5069167;28;43620;-82
2024/01/25 02:43:27;;;;;;;1.80;1.70;;;16.90;68.30;;;;;;5069262;27;45276;-82
2024/01/25 02:45:55;;;;;;;1.70;1.70;;;16.90;68.40;;;;;;5069622;28;43444;-81
2024/01/25 02:48:23;;;;;;;1.83;1.83;;;16.90;68.30;;;;;;5085484;28;43544;-81
2024/01/25 02:50:52;;;;;;;1.43;1.43;;;17.00;68.10;;;;;;5069207;28;43618;-82
2024/01/25 02:53:20;;;;;;;1.97;1.87;;;17.10;67.90;;;;;;5065921;28;45137;-81
2024/01/25 02:55:48;;;;;;;1.67;1.57;;;17.10;67.90;;;;;;5064756;28;43465;-83
2024/01/25 02:58:17;;;;;;;1.63;1.63;;;17.10;68.00;;;;;;5076666;28;43988;-82
2024/01/25 03:00:46;;;;;;;1.57;1.57;;;17.00;68.00;;;;;;5069205;28;44018;-82
2024/01/25 03:03:14;;;;;;;1.90;1.90;;;17.00;68.00;;;;;;5067362;28;44913;-81
2024/01/25 03:05:42;;;;;;;1.40;1.40;;;17.00;68.00;;;;;;5068754;28;43406;-80
2024/01/25 03:08:11;;;;;;;1.70;1.70;;;17.00;68.00;;;;;;5069447;28;43554;-81
2024/01/25 03:10:39;;;;;;;1.50;1.50;;;17.00;68.10;;;;;;5067430;28;46098;-81
2024/01/25 03:13:07;;;;;;;1.57;1.57;;;17.00;68.10;;;;;;5076686;28;45217;-81
2024/01/25 03:15:36;;;;;;;1.60;1.50;;;17.00;68.20;;;;;;5071994;28;43492;-80
2024/01/25 03:18:05;;;;;;;1.80;1.70;;;16.90;68.30;;;;;;5069632;28;43483;-81
2024/01/25 03:20:34;;;;;;;1.63;1.63;;;17.00;68.30;;;;;;5068508;28;43799;-80
2024/01/25 03:23:02;;;;;;;1.50;1.50;;;17.00;68.00;;;;;;5068962;28;43746;-81
2024/01/25 03:25:31;;;;;;;1.50;1.50;;;17.10;68.00;;;;;;5077090;28;43463;-81
2024/01/25 03:28:00;;;;;;;1.60;1.50;;;17.00;68.10;;;;;;5068288;28;43433;-81
2024/01/25 03:30:28;;;;;;;1.53;1.53;;;17.00;68.00;;;;;;5067702;28;43914;-82
2024/01/25 03:32:58;;;;;;;1.60;1.60;;;17.00;68.10;;;;;;5068444;28;43450;-82
2024/01/25 03:35:26;;;;;;;1.57;1.57;;;17.00;68.20;;;;;;5067297;28;43411;-80
2024/01/25 03:37:55;;;;;;;1.63;1.63;;;17.00;68.10;;;;;;5068874;28;44036;-80
2024/01/25 03:40:23;;;;;;;1.60;1.50;;;17.00;68.10;;;;;;5060808;28;43890;-81
2024/01/25 03:42:51;;;;;;;1.70;1.60;;;17.00;68.20;;;;;;5066733;28;44700;-81
2024/01/25 03:45:39;;;;;;;1.37;1.37;;;16.90;68.20;;;;;;5074932;28;43570;-82
2024/01/25 03:48:09;;;;;;;1.70;1.60;;;16.90;68.30;;;;;;5074069;28;44429;-81
2024/01/25 03:50:37;;;;;;;1.80;1.80;;;16.90;68.50;;;;;;5067752;28;43845;-82
2024/01/25 03:53:06;;;;;;;1.53;1.53;;;16.90;68.30;;;;;;5067991;28;43400;-82
2024/01/25 03:55:34;;;;;;;1.53;1.53;;;16.90;68.30;;;;;;5074001;27;44038;-81
2024/01/25 03:58:02;;;;;;;1.50;1.50;;;16.90;68.30;;;;;;5068974;28;43380;-81
2024/01/25 04:00:30;;;;;;;1.60;1.60;;;16.90;68.30;;;;;;5066767;28;43623;-80
2024/01/25 04:02:59;;;;;;;1.60;1.50;;;16.90;68.50;;;;;;5066921;28;44729;-81
2024/01/25 04:05:28;;;;;;;1.70;1.70;;;16.90;68.50;;;;;;5066693;28;43498;-80
2024/01/25 04:07:57;;;;;;;1.40;1.40;;;16.90;68.60;;;;;;5067275;28;43665;-81
2024/01/25 04:10:25;;;;;;;1.70;1.60;;;16.90;68.30;;;;;;5071011;28;45789;-81
2024/01/25 04:12:53;;;;;;;1.50;1.50;;;17.10;68.20;;;;;;5068144;28;43400;-79
2024/01/25 04:15:25;;;;;;;1.60;1.53;;;17.10;67.80;;;;;;5066527;28;43965;-82
2024/01/25 04:17:53;;;;;;;1.90;1.70;;;17.20;67.70;;;;;;5061905;28;43438;-82
2024/01/25 04:20:22;;;;;;;1.83;1.73;;;17.20;67.70;;;;;;5066175;28;44044;-81
2024/01/25 04:22:55;;;;;;;1.47;1.47;;;17.10;67.80;;;;;;5066574;28;43410;-79
2024/01/25 04:25:23;;;;;;;1.40;1.40;;;17.10;67.80;;;;;;5065705;28;43439;-82
2024/01/25 04:27:52;;;;;;;1.40;1.40;;;17.10;67.70;;;;;;5061154;28;43596;-80
2024/01/25 04:30:20;;;;;;;1.40;1.40;;;17.10;67.80;;;;;;5067275;28;43916;-83
2024/01/25 04:32:48;;;;;;;1.60;1.60;;;17.10;67.80;;;;;;5082519;28;44714;-83
2024/01/25 04:35:17;;;;;;;1.40;1.40;;;17.10;67.90;;;;;;5068756;28;43394;-82
2024/01/25 04:37:45;;;;;;;1.30;1.30;;;17.00;68.00;;;;;;5067311;28;44026;-83
2024/01/25 04:40:15;;;;;;;1.60;1.50;;;17.00;68.10;;;;;;5068156;28;43922;-83
2024/01/25 04:42:43;;;;;;;1.30;1.30;;;17.00;68.00;;;;;;5067323;28;44605;-83
2024/01/25 04:45:12;;;;;;;1.60;1.60;;;17.00;68.00;;;;;;5068669;28;43371;-82
2024/01/25 04:47:41;;;;;;;1.90;1.90;;;17.00;68.00;;;;;;5068129;28;43438;-81
2024/01/25 04:50:10;;;;;;;1.43;1.40;;;17.00;68.10;;;;;;5069025;28;44040;-83
2024/01/25 04:52:38;;;;;;;1.50;1.50;;;17.00;68.20;;;;;;5078008;28;43467;-81
2024/01/25 04:55:08;;;;;;;1.33;1.33;;;17.00;68.30;;;;;;5065873;28;43494;-81
2024/01/25 04:57:42;;;;;;;1.83;1.73;;;17.00;68.30;;;;;;5068629;28;43951;-82
2024/01/25 05:00:11;;;;;;;1.47;1.47;;;17.10;68.10;;;;;;5074682;28;46009;-81
2024/01/25 05:02:39;;;;;;;1.53;1.53;;;17.10;67.90;;;;;;5071649;28;43426;-83
2024/01/25 05:05:07;;;;;;;1.30;1.30;;;17.10;67.80;;;;;;5068747;28;43450;-81
2024/01/25 05:07:36;;;;;;;1.40;1.40;;;17.10;67.90;;;;;;5071730;28;43464;-81
2024/01/25 05:10:05;;;;;;;1.50;1.50;;;17.10;68.00;;;;;;5074192;28;43892;-80
2024/01/25 05:12:33;;;;;;;1.63;1.53;;;17.00;68.10;;;;;;5075008;28;45029;-79
2024/01/25 05:15:02;;;;;;;1.30;1.30;;;17.00;68.00;;;;;;5074065;28;43413;-81
2024/01/25 05:17:31;;;;;;;1.20;1.20;;;17.00;68.00;;;;;;5071193;28;43518;-79
2024/01/25 05:20:02;;;;;;;1.07;1.07;;;17.00;68.00;;;;;;5071020;28;43871;-80
2024/01/25 05:22:31;;;;;;;1.47;1.47;;;17.00;68.10;;;;;;5074363;28;44744;-79
2024/01/25 05:24:59;;;;;;;1.50;1.50;;;17.00;68.20;;;;;;5077299;28;43400;-81
2024/01/25 05:27:29;;;;;;;1.40;1.40;;;17.00;68.30;;;;;;5071052;28;43569;-78
2024/01/25 05:29:57;;;;;;;1.60;1.50;;;17.00;68.30;;;;;;5071223;28;44415;-86
2024/01/25 05:32:26;;;;;;;1.60;1.50;;;17.10;68.20;;;;;;5069482;28;45078;-81
2024/01/25 05:34:55;;;;;;;1.57;1.50;;;17.20;67.90;;;;;;5078519;28;43514;-81
2024/01/25 05:37:23;;;;;;;1.70;1.60;;;17.20;68.40;;;;;;5068482;28;43597;-81
2024/01/25 05:39:51;;;;;;;1.40;1.40;;;17.20;67.60;;;;;;5069444;28;45625;-76
2024/01/25 05:42:21;;;;;;;1.30;1.30;;;17.20;67.70;;;;;;5061273;28;43499;-77
2024/01/25 05:44:49;;;;;;;1.40;1.40;;;17.10;67.90;;;;;;5066510;28;43538;-76
2024/01/25 05:47:17;;;;;;;1.60;1.50;;;17.10;67.80;;;;;;5074342;28;43454;-76
2024/01/25 05:49:47;;;;;;;1.10;1.10;;;17.10;67.80;;;;;;5068367;28;45724;-74
2024/01/25 05:52:17;;;;;;;1.60;1.60;;;17.10;68.00;;;;;;5068613;28;44907;-74
2024/01/25 05:54:46;;;;;;;1.30;1.30;;;17.10;68.10;;;;;;5082113;27;43434;-75
2024/01/25 05:57:16;;;;;;;1.40;1.30;;;17.00;68.10;;;;;;5071250;28;43624;-75
2024/01/25 05:59:45;;;;;;;1.60;1.50;;;17.00;68.30;;;;;;5072231;28;44062;-75
2024/01/25 06:02:14;;;;;;;1.40;1.40;;;17.00;68.10;;;;;;5074526;28;45034;-76
2024/01/25 06:04:42;;;;;;;1.60;1.50;;;17.00;68.20;;;;;;5074637;28;43296;-74
2024/01/25 06:07:15;;;;;;;1.30;1.30;;;17.00;68.30;;;;;;5068470;28;44330;-75
2024/01/25 06:09:44;;;;;;;1.50;1.40;;;17.00;68.30;;;;;;5064073;28;45525;-74
2024/01/25 06:12:12;;;;;;;1.60;1.60;;;17.00;68.30;;;;;;5067634;28;43635;-76
2024/01/25 06:14:40;;;;;;;1.37;1.37;;;17.00;68.40;;;;;;5085430;28;43505;-74
2024/01/25 06:17:09;;;;;;;1.43;1.33;;;17.00;68.30;;;;;;5062229;28;43569;-74
2024/01/25 06:19:37;;;;;;;1.37;1.37;;;17.00;68.20;;;;;;5066925;28;45363;-74
2024/01/25 06:22:06;;;;;;;1.40;1.40;;;17.00;68.30;;;;;;5069279;28;43497;-74
2024/01/25 06:24:35;;;;;;;1.30;1.30;;;17.00;68.30;;;;;;5079013;28;44216;-74
2024/01/25 06:27:04;;;;;;;1.60;1.60;;;17.00;68.30;;;;;;5065168;28;43612;-74
2024/01/25 06:29:32;;;;;;;1.60;1.50;;;17.00;68.30;;;;;;5059160;28;45384;-74
2024/01/25 06:32:00;;;;;;;1.13;1.13;;;17.00;68.40;;;;;;5068033;28;45037;-74
2024/01/25 06:34:34;;;;;;;1.80;1.70;;;17.00;68.30;;;;;;5069203;28;43376;-76
2024/01/25 06:37:05;;;;;;;1.33;1.33;;;17.10;68.10;;;;;;5074181;28;43600;-75
2024/01/25 06:39:35;;;;;;;1.43;1.40;;;17.20;67.70;;;;;;5068758;28;45927;-75
2024/01/25 06:42:03;;;;;;;2.00;1.50;;;17.30;67.40;;;;;;5072810;28;44413;-74
2024/01/25 06:44:31;;;;;;;1.37;1.37;;;17.30;67.40;;;;;;5069187;28;43972;-74
2024/01/25 06:46:59;;;;;;;1.20;1.20;;;17.20;67.40;;;;;;5069300;28;43397;-73
2024/01/25 06:49:28;;;;;;;1.17;1.17;;;17.20;67.70;;;;;;5075590;28;45397;-76
2024/01/25 06:51:56;;;;;;;1.30;1.30;;;17.20;67.60;;;;;;5067166;28;43387;-76
2024/01/25 06:54:24;;;;;;;1.70;1.60;;;17.20;67.60;;;;;;5067283;28;43422;-75
2024/01/25 06:56:56;;;;;;;1.57;1.57;;;17.20;67.70;;;;;;5077747;28;43792;-76
2024/01/25 06:59:24;;;;;;;1.20;1.20;;;17.10;67.80;;;;;;5067080;28;46002;-75
2024/01/25 07:01:53;;;;;;;1.23;1.23;;;17.10;67.90;;;;;;5074409;28;43893;-75
2024/01/25 07:04:21;;;;;;;1.50;1.50;;;17.10;68.20;;;;;;5066106;28;43477;-76
2024/01/25 07:06:50;;;;;;;1.40;1.40;;;17.10;68.00;;;;;;5062084;28;43415;-76
2024/01/25 07:09:19;;;;;;;1.40;1.40;;;17.10;68.00;;;;;;5059612;28;46209;-75
2024/01/25 07:11:47;;;;;;;1.50;1.50;;;17.10;68.00;;;;;;5061360;28;43480;-77
2024/01/25 07:14:16;;;;;;;1.23;1.23;;;17.00;68.00;;;;;;5075555;28;43466;-75
2024/01/25 07:16:44;;;;;;;1.60;1.50;;;17.00;68.10;;;;;;5059860;28;43601;-76
2024/01/25 07:19:13;;;;;;;1.60;1.60;;;17.00;68.20;;;;;;5059248;28;44015;-74
2024/01/25 07:21:46;;;;;;;1.50;1.50;;;17.00;68.30;;;;;;5065515;28;44096;-74
2024/01/25 07:24:14;;;;;;;1.50;1.50;;;17.10;68.20;;;;;;5059882;28;43362;-74
2024/01/25 07:26:42;;;;;;;1.57;1.47;;;17.10;67.90;;;;;;5089344;27;43459;-74
2024/01/25 07:29:10;;;;;;;1.30;1.30;;;17.10;67.70;;;;;;5062094;28;44101;-77
2024/01/25 07:31:40;;;;;;;1.20;1.20;;;17.10;67.70;;;;;;5059152;28;43391;-74
2024/01/25 07:34:08;;;;;;;1.33;1.33;;;17.10;67.90;;;;;;5074220;28;43485;-74
2024/01/25 07:36:36;;;;;;;1.50;1.50;;;17.10;68.00;;;;;;5060647;28;43476;-75
2024/01/25 07:39:05;;;;;;;1.50;1.50;;;17.10;68.00;;;;;;5061539;28;43836;-77
2024/01/25 07:41:33;;;;;;;1.30;1.30;;;17.10;67.90;;;;;;5057166;28;44978;-76
2024/01/25 07:44:02;;;;;;;1.63;1.63;;;17.10;68.00;;;;;;5060070;28;43504;-75
2024/01/25 07:46:31;;;;;;;1.30;1.30;;;17.10;68.00;;;;;;5060402;28;43439;-75
2024/01/25 07:49:00;;;;;;;1.40;1.33;;;17.10;68.80;;;;;;5062296;28;43919;-75
2024/01/25 07:51:29;;;;;;;1.33;1.33;;;17.00;68.20;;;;;;5059646;28;44047;-75
2024/01/25 07:53:57;;;;;;;1.73;1.47;;;17.00;68.10;;;;;;5090929;27;43341;-76
2024/01/25 07:56:25;;;;;;;1.70;1.60;;;17.00;68.00;;;;;;5057459;28;43976;-75
2024/01/25 07:58:53;;;;;;;1.50;1.50;;;17.00;68.10;;;;;;5067461;28;46072;-75
2024/01/25 08:01:20;;;;;;;1.40;1.40;;;17.00;68.10;;;;;;5061683;28;43392;-82
2024/01/25 08:03:49;;;;;;;1.43;1.33;;;17.00;68.20;;;;;;5062312;28;43435;-82
2024/01/25 08:06:19;;;;;;;2.03;1.80;;;17.00;68.20;;;;;;5061102;28;43494;-82
2024/01/25 08:08:47;;;;;;;1.83;1.80;;;17.00;68.40;;;;;;5063097;28;43797;-80
2024/01/25 08:11:18;;;;;;;1.73;1.63;;;17.00;68.20;;;;;;5061449;28;43504;-82
2024/01/25 08:13:47;;;;;;;1.40;1.40;;;17.10;67.90;;;;;;5062642;28;43400;-78
2024/01/25 08:16:19;;;;;;;1.50;1.40;;;17.20;67.70;;;;;;5057879;28;43502;-82
2024/01/25 08:18:47;;;;;;;1.70;1.60;;;17.20;67.60;;;;;;5066449;28;45410;-82
2024/01/25 08:21:16;;;;;;;1.70;1.60;;;17.20;67.70;;;;;;5067769;28;44081;-82
2024/01/25 08:23:45;;;;;;;1.80;1.70;;;17.10;67.90;;;;;;5065454;28;43472;-82
2024/01/25 08:26:14;;;;;;;1.60;1.50;;;17.20;67.90;;;;;;5065842;28;43440;-81
2024/01/25 08:28:43;;;;;;;1.33;1.33;;;17.10;67.70;;;;;;5067313;28;43899;-81
2024/01/25 08:31:11;;;;;;;1.30;1.30;;;17.10;68.10;;;;;;5066290;28;43429;-83
2024/01/25 08:33:41;;;;;;;1.60;1.60;;;17.10;68.00;;;;;;5066889;28;43368;-82
2024/01/25 08:36:10;;;;;;;1.90;1.80;;;17.10;68.10;;;;;;5074841;28;43565;-79
2024/01/25 08:38:38;;;;;;;1.53;1.47;;;17.00;68.10;;;;;;5067179;28;43551;-82
2024/01/25 08:41:07;;;;;;;1.60;1.50;;;17.00;68.20;;;;;;5067836;28;43371;-83
2024/01/25 08:43:35;;;;;;;1.70;1.60;;;17.00;68.00;;;;;;5070241;28;43451;-82
2024/01/25 08:46:04;;;;;;;1.43;1.43;;;17.00;68.10;;;;;;5069762;28;43987;-80
2024/01/25 08:48:32;;;;;;;1.50;1.50;;;17.00;68.10;;;;;;5065149;28;46097;-82
2024/01/25 08:51:01;;;;;;;1.37;1.37;;;17.00;68.20;;;;;;5070336;28;43450;-82
2024/01/25 08:53:29;;;;;;;1.47;1.47;;;17.00;68.30;;;;;;5075330;28;43468;-82
2024/01/25 08:55:58;;;;;;;1.50;1.50;;;17.00;68.40;;;;;;5071350;28;43447;-82
2024/01/25 08:58:29;;;;;;;2.10;1.97;;;17.00;68.30;;;;;;5067769;28;46046;-79
2024/01/25 09:00:58;;;;;;;1.83;1.73;;;17.10;68.20;;;;;;5070852;28;43550;-78
2024/01/25 09:03:26;;;;;;;1.50;1.50;;;17.20;67.90;;;;;;5068998;28;43367;-79
2024/01/25 09:05:54;;;;;;;1.73;1.57;;;17.10;67.70;;;;;;5070111;28;43958;-82
2024/01/25 09:08:23;;;;;;;1.80;1.70;;;17.20;67.80;;;;;;5076800;28;45735;-81
2024/01/25 09:10:51;;;;;;;1.73;1.63;;;17.10;67.90;;;;;;5071067;28;44739;-82
2024/01/25 09:13:18;;;;;;;1.70;1.60;;;17.10;67.90;;;;;;5075018;28;43505;-77
2024/01/25 09:15:48;;;;;;;2.47;1.70;;;17.10;67.70;;;;;;5071467;28;43511;-77
2024/01/25 09:18:16;;;;;;;2.10;2.00;;;17.10;67.90;;;;;;5068824;28;44356;-82
2024/01/25 09:20:47;;;;;;;1.87;1.83;;;17.10;67.90;;;;;;5071907;28;43443;-81
2024/01/25 09:23:16;;;;;;;1.77;1.67;;;17.10;67.90;;;;;;5063572;28;43343;-81
2024/01/25 09:25:45;;;;;;;1.50;1.50;;;17.10;68.10;;;;;;5065505;28;43452;-82
2024/01/25 09:28:14;;;;;;;2.00;1.90;;;17.00;68.20;;;;;;5063097;28;46131;-83
2024/01/25 09:30:46;;;;;;;2.03;1.93;;;17.00;68.00;;;;;;5070534;28;44762;-81
2024/01/25 09:33:16;;;;;;;1.90;1.80;;;17.00;68.10;;;;;;5069970;28;43379;-81
2024/01/25 09:35:46;;;;;;;1.63;1.63;;;17.00;68.10;;;;;;5073174;28;44249;-80
2024/01/25 09:38:15;;;;;;;1.97;1.87;;;17.00;68.10;;;;;;5072879;28;43567;-80
2024/01/25 09:40:44;;;;;;;2.03;1.93;;;17.00;68.20;;;;;;5075070;28;44718;-80
2024/01/25 09:43:12;;;;;;;2.30;2.10;;;17.00;68.40;;;;;;5070625;28;43459;-80
2024/01/25 09:45:40;;;;;;;2.03;1.93;;;17.00;68.50;;;;;;5072184;28;43452;-81
2024/01/25 09:48:08;;;;;;;2.23;2.10;;;17.10;68.50;;;;;;5069966;28;46310;-81
2024/01/25 09:50:41;;;;;;;2.33;2.13;;;17.20;68.30;;;;;;5072485;28;43445;-81
2024/01/25 09:53:11;;;;;;;2.27;2.17;;;17.20;68.00;;;;;;5065332;28;43467;-81
2024/01/25 09:55:39;;;;;;;3.83;2.80;;;17.20;67.90;;;;;;5078819;28;43505;-81
2024/01/25 09:58:08;;;;;;;3.80;3.33;;;17.10;68.00;;;;;;5063429;28;46395;-81
2024/01/25 10:00:37;;;;;;;4.10;3.80;;;17.20;68.40;;;;;;5068825;28;43941;-80
2024/01/25 10:03:06;;;;;;;5.37;3.47;;;17.20;68.30;;;;;;5071649;28;43377;-81
2024/01/25 10:05:34;;;;;;;4.83;3.77;;;17.10;68.20;;;;;;5068835;28;43699;-80
2024/01/25 10:08:04;;;;;;;4.47;3.70;;;17.10;68.40;;;;;;5069821;28;43842;-80
2024/01/25 10:10:33;;;;;;;4.50;3.83;;;17.10;68.50;;;;;;5071227;28;43428;-81
2024/01/25 10:13:01;;;;;;;5.53;4.30;;;17.10;68.60;;;;;;5070040;28;43442;-82
2024/01/25 10:15:30;;;;;;;4.60;3.83;;;17.10;68.70;;;;;;5065275;28;43617;-81
2024/01/25 10:17:58;;;;;;;6.30;4.00;;;17.10;68.90;;;;;;5071277;28;43914;-80
2024/01/25 10:20:46;;;;;;;4.13;3.83;;;17.10;68.80;;;;;;5070044;28;44737;-77
2024/01/25 10:23:21;;;;;;;4.73;3.87;;;17.10;68.80;;;;;;5068878;28;44006;-82
2024/01/25 10:25:51;;;;;;;6.13;4.40;;;17.10;68.90;;;;;;5070930;28;43640;-82
2024/01/25 10:28:21;;;;;;;7.60;4.50;;;17.00;68.80;;;;;;5071744;28;43668;-82
2024/01/25 10:30:56;;;;;;;8.97;5.47;;;17.00;68.90;;;;;;5073697;28;44695;-83
2024/01/25 10:33:24;;;;;;;10.10;5.17;;;17.00;69.20;;;;;;5079440;28;44040;-82
2024/01/25 10:35:53;;;;;;;12.83;5.77;;;17.10;69.10;;;;;;5071828;28;43481;-81
2024/01/25 10:38:25;;;;;;;9.17;5.80;;;17.20;68.80;;;;;;5079739;28;45808;-78
2024/01/25 10:40:56;;;;;;;17.13;7.03;;;17.20;68.60;;;;;;5070023;28;45000;-81
2024/01/25 10:43:26;;;;;;;8.77;5.77;;;17.20;67.90;;;;;;5070720;28;43491;-81
2024/01/25 10:45:57;;;;;;;21.27;6.90;;;17.20;68.30;;;;;;5088585;28;43549;-81
2024/01/25 10:48:32;;;;;;;17.27;8.23;;;17.20;68.10;;;;;;5068398;28;46000;-81
2024/01/25 10:51:02;;;;;;;14.47;7.93;;;17.20;68.10;;;;;;5070932;28;43913;-79
2024/01/25 10:53:34;;;;;;;14.33;8.47;;;17.20;68.10;;;;;;5073573;28;43438;-79
2024/01/25 10:56:03;;;;;;;16.30;8.47;;;17.20;68.30;;;;;;5072450;28;43490;-80
2024/01/25 10:58:31;;;;;;;14.80;8.30;;;17.20;68.30;;;;;;5071403;28;46383;-78
2024/01/25 11:01:10;;;;;;;16.33;8.77;;;17.20;68.50;;;;;;5067737;28;43896;-79
2024/01/25 11:03:44;;;;;;;18.00;9.47;;;17.10;68.50;;;;;;5066058;28;43583;-77
2024/01/25 11:06:12;;;;;;;16.23;8.33;;;17.20;68.50;;;;;;5060421;28;43367;-82
2024/01/25 11:08:42;;;;;;;17.07;8.60;;;17.20;68.60;;;;;;5063810;28;46483;-80
2024/01/25 11:11:15;;;;;;;17.90;8.80;;;17.20;68.70;;;;;;5063011;28;44925;-83
2024/01/25 11:13:46;;;;;;;17.70;9.27;;;17.10;68.70;;;;;;5069147;28;43434;-81
2024/01/25 11:16:15;;;;;;;17.70;9.20;;;17.10;68.70;;;;;;5071393;28;43379;-81
2024/01/25 11:18:50;;;;;;;15.47;9.03;;;17.10;68.70;;;;;;5073388;28;45948;-81
2024/01/25 11:21:28;;;;;;;16.50;9.03;;;17.10;68.80;;;;;;5061060;28;43970;-80
2024/01/25 11:24:02;;;;;;;16.27;8.63;;;17.20;68.80;;;;;;5058726;28;43475;-81
2024/01/25 11:26:33;;;;;;;15.03;8.43;;;17.30;68.50;;;;;;5059116;28;43584;-81
2024/01/25 11:29:02;;;;;;;14.93;8.10;;;17.30;68.40;;;;;;5065068;28;44481;-80
2024/01/25 11:31:31;;;;;;;15.00;8.60;;;17.30;68.50;;;;;;5061733;28;43554;-74
2024/01/25 11:34:00;;;;;;;15.47;8.23;;;17.30;68.70;;;;;;5057088;28;43519;-74
2024/01/25 11:36:28;;;;;;;12.50;7.40;;;17.30;68.90;;;;;;5062235;28;43549;-74
2024/01/25 11:38:57;;;;;;;12.20;7.23;;;17.20;69.50;;;;;;5060770;28;44172;-73
2024/01/25 11:41:27;;;;;;;10.90;7.37;;;17.20;68.70;;;;;;5058265;28;43477;-74
2024/01/25 11:43:55;;;;;;;11.30;7.43;;;17.30;69.00;;;;;;5057079;28;43539;-75
2024/01/25 11:46:23;;;;;;;10.10;7.17;;;17.20;69.00;;;;;;5061935;28;43406;-75
2024/01/25 11:48:51;;;;;;;10.70;7.27;;;17.20;69.10;;;;;;5057889;28;45820;-73
2024/01/25 11:51:19;;;;;;;10.87;7.23;;;17.20;69.30;;;;;;5063485;28;43475;-76
2024/01/25 11:53:47;;;;;;;9.97;7.23;;;17.20;69.20;;;;;;5061930;28;43448;-74
2024/01/25 11:56:17;;;;;;;9.37;6.63;;;17.20;69.20;;;;;;5056457;28;43511;-77
2024/01/25 11:58:47;;;;;;;13.10;7.77;;;17.20;69.20;;;;;;5055785;28;45663;-73
2024/01/25 12:01:15;;;;;;;12.00;6.47;;;17.20;69.30;;;;;;5068038;28;43958;-73
2024/01/25 12:03:43;;;;;;;12.30;7.07;;;17.20;69.30;;;;;;5066407;28;43559;-75
2024/01/25 12:06:11;;;;;;;10.80;6.60;;;17.20;69.40;;;;;;5079996;28;43490;-74
2024/01/25 12:08:40;;;;;;;12.70;6.93;;;17.20;69.60;;;;;;5067180;28;44222;-75
2024/01/25 12:11:08;;;;;;;9.57;7.27;;;17.20;69.40;;;;;;5066696;28;43405;-74
2024/01/25 12:13:37;;;;;;;12.57;6.70;;;17.30;69.00;;;;;;5067732;28;43458;-74
2024/01/25 12:16:07;;;;;;;9.50;6.40;;;17.30;68.70;;;;;;5066161;28;43375;-74
2024/01/25 12:18:36;;;;;;;10.37;6.43;;;17.30;68.60;;;;;;5066684;28;43651;-74
2024/01/25 12:21:05;;;;;;;13.00;7.00;;;17.30;68.70;;;;;;5065894;28;43541;-74
2024/01/25 12:23:33;;;;;;;9.63;6.30;;;17.30;69.00;;;;;;5064728;28;43432;-74
2024/01/25 12:26:03;;;;;;;7.80;6.07;;;17.30;68.90;;;;;;5066568;28;43530;-75
2024/01/25 12:28:33;;;;;;;9.40;6.33;;;17.30;68.90;;;;;;5067767;28;43907;-74
2024/01/25 12:31:02;;;;;;;7.37;5.83;;;17.30;68.90;;;;;;5066907;28;43478;-74
2024/01/25 12:33:32;;;;;;;7.83;5.70;;;17.20;68.90;;;;;;5063802;28;43462;-74
2024/01/25 12:36:01;;;;;;;9.93;6.00;;;17.20;69.00;;;;;;5064114;28;43533;-76
2024/01/25 12:38:33;;;;;;;8.77;6.13;;;17.20;69.20;;;;;;5067444;28;43614;-74
2024/01/25 12:41:02;;;;;;;6.33;5.53;;;17.20;69.20;;;;;;5067973;28;44090;-80
2024/01/25 12:43:30;;;;;;;9.23;6.17;;;17.20;69.10;;;;;;5069485;28;43390;-80
2024/01/25 12:46:00;;;;;;;6.73;6.03;;;17.20;69.10;;;;;;5071819;28;44306;-81
2024/01/25 12:48:46;;;;;;;7.33;5.60;;;17.20;69.30;;;;;;5069566;28;44280;-82
2024/01/25 12:51:16;;;;;;;8.67;5.93;;;17.20;69.30;;;;;;5067313;28;43487;-81
2024/01/25 12:53:44;;;;;;;8.43;5.93;;;17.10;69.30;;;;;;5067212;28;43912;-82
2024/01/25 12:56:14;;;;;;;8.60;5.77;;;17.10;69.30;;;;;;5067506;28;43483;-79